createdAt,value
2023-03-17T00:00:46.768Z,55.20
2023-03-17T00:03:29.699Z,55.40
2023-03-17T00:05:58.977Z,55.20
2023-03-17T00:08:32.935Z,55.30
2023-03-17T00:11:01.158Z,55.30
2023-03-17T00:13:30.698Z,55.70
2023-03-17T00:16:05.012Z,55.70
2023-03-17T00:18:33.458Z,55.20
2023-03-17T00:21:00.649Z,55.60
2023-03-17T00:23:27.767Z,55.60
2023-03-17T00:25:54.969Z,56.20
2023-03-17T00:28:25.734Z,56.20
2023-03-17T00:30:59.194Z,56.20
2023-03-17T00:33:30.030Z,55.90
2023-03-17T00:35:58.684Z,56.40
2023-03-17T00:38:26.160Z,56.40
2023-03-17T00:40:53.443Z,56.40
2023-03-17T00:43:22.386Z,56.10
2023-03-17T00:45:49.583Z,56.60
2023-03-17T00:48:20.922Z,56.70
2023-03-17T00:50:50.574Z,57.70
2023-03-17T00:53:21.614Z,57.50
2023-03-17T00:55:50.011Z,57.60
2023-03-17T00:58:32.818Z,57.70
2023-03-17T01:01:01.016Z,57.20
2023-03-17T01:03:28.918Z,57.50
2023-03-17T01:05:57.820Z,57.80
2023-03-17T01:08:26.273Z,57.40
2023-03-17T01:10:53.421Z,58.00
2023-03-17T01:13:20.825Z,58.00
2023-03-17T01:15:50.574Z,57.70
2023-03-17T01:18:21.391Z,57.50
2023-03-17T01:20:50.590Z,57.30
2023-03-17T01:23:18.247Z,57.30
2023-03-17T01:25:45.668Z,57.90
2023-03-17T01:28:19.370Z,57.40
2023-03-17T01:30:47.418Z,56.90
2023-03-17T01:33:15.310Z,57.30
2023-03-17T01:35:45.836Z,57.10
2023-03-17T01:38:15.098Z,57.20
2023-03-17T01:40:52.013Z,56.90
2023-03-17T01:43:29.558Z,57.00
2023-03-17T01:46:25.468Z,57.40
2023-03-17T01:49:00.121Z,57.20
2023-03-17T01:51:52.642Z,57.90
2023-03-17T01:54:45.589Z,58.60
2023-03-17T01:57:21.492Z,57.60
2023-03-17T01:59:56.542Z,57.40
2023-03-17T02:02:34.856Z,57.90
2023-03-17T02:05:04.303Z,57.90
2023-03-17T02:07:31.488Z,57.80
2023-03-17T02:09:59.659Z,57.20
2023-03-17T02:12:29.054Z,57.60
2023-03-17T02:14:57.420Z,57.30
2023-03-17T02:17:27.330Z,57.50
2023-03-17T02:19:56.171Z,57.90
2023-03-17T02:22:24.054Z,58.20
2023-03-17T02:24:58.630Z,57.80
2023-03-17T02:27:39.786Z,58.10
2023-03-17T02:30:09.572Z,58.20
2023-03-17T02:32:38.185Z,58.20
2023-03-17T02:35:08.316Z,58.30
2023-03-17T02:37:37.854Z,58.90
2023-03-17T02:40:07.704Z,59.00
2023-03-17T02:42:35.729Z,59.10
2023-03-17T02:45:03.137Z,59.20
2023-03-17T02:47:30.324Z,58.90
2023-03-17T02:49:57.458Z,58.80
2023-03-17T02:52:25.271Z,58.90
2023-03-17T02:54:52.766Z,59.60
2023-03-17T02:57:19.840Z,59.70
2023-03-17T02:59:47.033Z,59.70
2023-03-17T03:02:14.361Z,59.70
2023-03-17T03:04:41.950Z,59.90
2023-03-17T03:07:10.522Z,60.30
2023-03-17T03:09:37.611Z,60.80
2023-03-17T03:12:06.499Z,60.50
2023-03-17T03:14:33.670Z,60.30
2023-03-17T03:17:00.696Z,59.80
2023-03-17T03:19:28.313Z,59.40
2023-03-17T03:21:55.393Z,59.40
2023-03-17T03:24:22.894Z,59.50
2023-03-17T03:26:50.022Z,59.10
2023-03-17T03:29:17.127Z,59.50
2023-03-17T03:31:44.284Z,60.20
2023-03-17T03:34:11.484Z,59.90
2023-03-17T03:36:38.622Z,59.90
2023-03-17T03:39:05.745Z,59.40
2023-03-17T03:41:32.776Z,59.10
2023-03-17T03:44:00.038Z,59.00
2023-03-17T03:46:27.951Z,59.10
2023-03-17T03:48:55.769Z,59.00
2023-03-17T03:51:22.896Z,58.70
2023-03-17T03:53:50.083Z,58.90
2023-03-17T03:56:17.137Z,58.60
2023-03-17T03:58:44.331Z,58.30
2023-03-17T04:01:11.679Z,58.60
2023-03-17T04:03:39.260Z,58.80
2023-03-17T04:06:06.595Z,58.40
2023-03-17T04:08:33.781Z,58.30
2023-03-17T04:11:01.119Z,58.70
2023-03-17T04:13:28.191Z,58.60
2023-03-17T04:15:55.339Z,59.00
2023-03-17T04:18:22.450Z,59.40
2023-03-17T04:20:49.530Z,59.70
2023-03-17T04:23:17.344Z,59.40
2023-03-17T04:25:44.946Z,59.50
2023-03-17T04:28:12.243Z,59.50
2023-03-17T04:30:39.410Z,59.40
2023-03-17T04:33:07.229Z,60.20
2023-03-17T04:35:34.487Z,60.10
2023-03-17T04:38:01.689Z,60.80
2023-03-17T04:40:29.146Z,62.30
2023-03-17T04:42:56.386Z,64.00
2023-03-17T04:45:23.458Z,62.90
2023-03-17T04:47:50.991Z,62.30
2023-03-17T04:50:18.202Z,64.30
2023-03-17T04:52:45.642Z,63.20
2023-03-17T04:55:12.704Z,62.70
2023-03-17T04:57:39.973Z,63.70
2023-03-17T05:00:08.441Z,63.70
2023-03-17T05:02:35.765Z,65.40
2023-03-17T05:05:02.883Z,64.80
2023-03-17T05:07:31.304Z,64.70
2023-03-17T05:09:59.603Z,64.80
2023-03-17T05:12:27.028Z,64.70
2023-03-17T05:14:54.089Z,64.00
2023-03-17T05:17:21.438Z,64.00
2023-03-17T05:19:48.590Z,64.50
2023-03-17T05:22:15.689Z,64.70
2023-03-17T05:24:42.976Z,64.30
2023-03-17T05:27:10.118Z,63.90
2023-03-17T05:29:38.090Z,64.50
2023-03-17T05:32:05.767Z,64.20
2023-03-17T05:34:33.535Z,63.80
2023-03-17T05:37:01.337Z,63.10
2023-03-17T05:39:28.584Z,63.20
2023-03-17T05:41:56.982Z,63.30
2023-03-17T05:44:24.765Z,63.20
2023-03-17T05:46:51.846Z,63.20
2023-03-17T05:49:19.162Z,63.00
2023-03-17T05:51:46.498Z,63.00
2023-03-17T05:54:13.945Z,63.20
2023-03-17T05:56:41.427Z,63.10
2023-03-17T05:59:09.586Z,63.00
2023-03-17T06:01:37.368Z,63.40
2023-03-17T06:04:04.483Z,62.90
2023-03-17T06:06:32.174Z,63.40
2023-03-17T06:08:59.738Z,64.50
2023-03-17T06:11:27.272Z,64.50
2023-03-17T06:13:54.673Z,64.30
2023-03-17T06:16:22.366Z,64.10
2023-03-17T06:18:49.796Z,64.10
2023-03-17T06:21:17.000Z,64.70
2023-03-17T06:23:44.098Z,64.80
2023-03-17T06:26:11.178Z,65.70
2023-03-17T06:28:38.339Z,66.20
2023-03-17T06:31:07.340Z,64.80
2023-03-17T06:33:35.343Z,65.00
2023-03-17T06:36:03.352Z,66.10
2023-03-17T06:38:30.480Z,64.40
2023-03-17T06:40:58.074Z,64.20
2023-03-17T06:43:25.292Z,63.80
2023-03-17T06:45:52.648Z,64.70
2023-03-17T06:48:19.883Z,65.00
2023-03-17T06:50:47.770Z,64.50
2023-03-17T06:53:15.014Z,65.00
2023-03-17T06:55:42.945Z,64.50
2023-03-17T06:58:10.673Z,64.20
2023-03-17T07:00:40.836Z,62.70
2023-03-17T07:03:09.998Z,62.10
2023-03-17T07:05:39.354Z,62.60
2023-03-17T07:08:06.721Z,62.70
2023-03-17T07:10:34.479Z,63.20
2023-03-17T07:13:02.414Z,63.00
2023-03-17T07:15:34.703Z,62.40
2023-03-17T07:18:02.609Z,62.60
2023-03-17T07:20:30.065Z,61.50
2023-03-17T07:22:58.096Z,61.80
2023-03-17T07:25:25.301Z,62.20
2023-03-17T07:27:52.818Z,60.80
2023-03-17T07:30:20.675Z,60.70
2023-03-17T07:32:48.746Z,60.80
2023-03-17T07:35:16.580Z,60.80
2023-03-17T07:37:44.634Z,59.70
2023-03-17T07:40:12.447Z,60.50
2023-03-17T07:42:39.590Z,59.80
2023-03-17T07:45:10.037Z,59.10
2023-03-17T07:47:37.622Z,59.80
2023-03-17T07:50:06.025Z,58.50
2023-03-17T07:52:34.694Z,59.00
2023-03-17T07:55:04.348Z,59.20
2023-03-17T07:57:41.925Z,59.20
2023-03-17T08:00:19.966Z,59.40
2023-03-17T08:03:54.491Z,57.60
2023-03-17T08:05:54.051Z,59.40
2023-03-17T08:08:29.196Z,58.80
2023-03-17T08:11:04.771Z,58.50
2023-03-17T08:13:35.252Z,58.00
2023-03-17T08:16:16.874Z,58.80
2023-03-17T08:19:21.211Z,58.90
2023-03-17T08:22:02.024Z,59.90
2023-03-17T08:24:45.856Z,58.90
2023-03-17T08:27:37.097Z,59.50
2023-03-17T08:30:09.155Z,59.20
2023-03-17T08:32:36.677Z,59.40
2023-03-17T08:35:15.969Z,59.40
2023-03-17T08:37:56.284Z,58.50
2023-03-17T08:40:26.150Z,59.20
2023-03-17T08:43:04.589Z,58.70
2023-03-17T08:45:33.538Z,58.50
2023-03-17T08:48:01.280Z,59.70
2023-03-17T08:50:36.032Z,59.20
2023-03-17T08:53:09.548Z,59.30
2023-03-17T08:55:42.070Z,59.20
2023-03-17T08:58:11.204Z,58.40
2023-03-17T09:00:51.265Z,57.80
2023-03-17T09:03:21.805Z,58.70
2023-03-17T09:05:54.916Z,58.80
2023-03-17T09:08:26.613Z,58.70
2023-03-17T09:11:08.086Z,58.80
2023-03-17T09:13:44.076Z,59.20
2023-03-17T09:16:16.558Z,57.00
2023-03-17T09:18:55.190Z,57.20
2023-03-17T09:21:22.675Z,56.90
2023-03-17T09:24:08.523Z,59.00
2023-03-17T09:26:49.112Z,57.90
2023-03-17T09:29:22.461Z,58.50
2023-03-17T09:31:58.531Z,58.50
2023-03-17T09:34:35.849Z,58.70
2023-03-17T09:37:15.683Z,58.90
2023-03-17T09:39:47.572Z,59.90
2023-03-17T09:43:06.664Z,59.20
2023-03-17T09:45:44.765Z,59.60
2023-03-17T09:48:39.121Z,58.20
2023-03-17T09:51:09.588Z,58.00
2023-03-17T09:54:11.006Z,58.00
2023-03-17T09:56:48.516Z,58.40
2023-03-17T09:59:34.455Z,57.50
2023-03-17T10:02:02.362Z,58.40
2023-03-17T10:04:29.906Z,58.50
2023-03-17T10:07:11.716Z,57.10
2023-03-17T10:10:19.886Z,57.40
2023-03-17T10:13:11.180Z,55.60
2023-03-17T10:16:01.711Z,56.70
2023-03-17T10:18:40.312Z,56.40
2023-03-17T10:21:16.387Z,55.40
2023-03-17T10:23:55.951Z,56.00
2023-03-17T10:26:45.291Z,55.80
2023-03-17T10:29:25.516Z,56.10
2023-03-17T10:31:58.299Z,54.30
2023-03-17T10:34:38.108Z,54.90
2023-03-17T10:37:16.279Z,55.20
2023-03-17T10:40:10.669Z,54.60
2023-03-17T10:43:05.982Z,55.80
2023-03-17T10:45:40.679Z,56.30
2023-03-17T10:48:11.007Z,54.50
2023-03-17T10:50:42.293Z,54.80
2023-03-17T10:54:38.511Z,53.70
2023-03-17T10:56:40.746Z,55.10
2023-03-17T10:59:24.312Z,53.90
2023-03-17T11:02:02.166Z,55.50
2023-03-17T11:04:37.332Z,53.60
2023-03-17T11:07:33.006Z,54.70
2023-03-17T11:10:08.685Z,54.10
2023-03-17T11:12:46.758Z,53.30
2023-03-17T11:15:22.868Z,53.10
2023-03-17T11:18:06.246Z,54.40
2023-03-17T11:20:52.664Z,53.00
2023-03-17T11:23:43.693Z,53.20
2023-03-17T11:26:18.946Z,52.70
2023-03-17T11:29:10.634Z,53.90
2023-03-17T11:32:02.348Z,52.30
2023-03-17T11:34:46.634Z,54.30
2023-03-17T11:38:01.386Z,53.50
2023-03-17T11:41:18.848Z,52.00
2023-03-17T11:44:19.786Z,53.00
2023-03-17T11:47:28.445Z,54.10
2023-03-17T11:50:26.545Z,53.30
2023-03-17T11:53:26.085Z,53.50
2023-03-17T11:56:44.262Z,53.60
2023-03-17T11:59:33.522Z,53.10
2023-03-17T12:02:31.643Z,52.60
2023-03-17T12:05:31.311Z,51.70
2023-03-17T12:08:27.448Z,52.10
2023-03-17T12:11:03.388Z,51.70
2023-03-17T12:13:56.886Z,53.00
2023-03-17T12:16:45.970Z,52.30
2023-03-17T12:19:40.872Z,53.50
2023-03-17T12:22:32.884Z,51.80
2023-03-17T12:25:41.450Z,53.40
2023-03-17T12:28:28.469Z,50.50
2023-03-17T12:31:24.616Z,50.70
2023-03-17T12:34:28.671Z,50.40
2023-03-17T12:37:08.677Z,50.30
2023-03-17T12:39:55.908Z,50.60
2023-03-17T12:42:47.236Z,51.10
2023-03-17T12:46:10.797Z,50.60
2023-03-17T12:49:22.933Z,50.60
2023-03-17T12:53:06.832Z,49.90
2023-03-17T12:55:37.096Z,50.20
2023-03-17T12:58:36.629Z,50.40
2023-03-17T13:01:40.356Z,49.30
2023-03-17T13:05:02.222Z,49.40
2023-03-17T13:07:42.600Z,49.60
2023-03-17T13:10:40.886Z,48.90
2023-03-17T13:13:29.478Z,49.20
2023-03-17T13:15:59.827Z,49.40
2023-03-17T13:18:48.006Z,50.60
2023-03-17T13:21:25.904Z,51.00
2023-03-17T13:24:28.548Z,49.90
2023-03-17T13:27:19.955Z,50.20
2023-03-17T13:30:02.822Z,51.40
2023-03-17T13:32:46.743Z,51.00
2023-03-17T13:35:20.309Z,50.50
2023-03-17T13:38:40.873Z,49.80
2023-03-17T13:41:33.517Z,51.20
2023-03-17T13:44:37.656Z,51.10
2023-03-17T13:47:41.309Z,49.60
2023-03-17T13:50:17.144Z,50.40
2023-03-17T13:56:18.939Z,50.30
2023-03-17T13:59:07.674Z,49.60
2023-03-17T14:02:35.411Z,49.80
2023-03-17T14:05:29.562Z,49.80
2023-03-17T14:08:06.098Z,50.30
2023-03-17T14:10:43.558Z,50.20
2023-03-17T14:13:32.818Z,50.40
2023-03-17T14:16:32.202Z,50.00
2023-03-17T14:19:22.755Z,49.40
2023-03-17T14:21:55.208Z,49.80
2023-03-17T14:24:36.112Z,49.80
2023-03-17T14:27:14.914Z,51.00
2023-03-17T14:29:55.801Z,51.20
2023-03-17T14:32:26.858Z,50.10
2023-03-17T14:35:01.979Z,50.80
2023-03-17T14:37:29.417Z,50.20
2023-03-17T14:39:59.168Z,50.90
2023-03-17T14:42:31.661Z,51.20
2023-03-17T14:45:33.633Z,51.30
2023-03-17T14:48:28.704Z,50.80
2023-03-17T14:51:10.098Z,51.60
2023-03-17T14:53:53.134Z,50.90
2023-03-17T14:56:50.701Z,50.70
2023-03-17T14:59:25.502Z,50.60
2023-03-17T15:01:59.950Z,50.80
2023-03-17T15:04:36.469Z,49.90
2023-03-17T15:07:09.032Z,50.00
2023-03-17T15:09:44.363Z,50.00
2023-03-17T15:12:26.097Z,49.70
2023-03-17T15:15:28.364Z,50.70
2023-03-17T15:18:03.780Z,51.70
2023-03-17T15:20:39.472Z,51.40
2023-03-17T15:23:20.727Z,51.70
2023-03-17T15:25:56.792Z,50.90
2023-03-17T15:28:29.386Z,51.50
2023-03-17T15:31:39.769Z,52.20
2023-03-17T15:34:12.586Z,51.40
2023-03-17T15:36:51.850Z,51.70
2023-03-17T15:39:27.154Z,51.20
2023-03-17T15:42:01.936Z,51.80
2023-03-17T15:44:33.722Z,50.90
2023-03-17T15:47:14.890Z,51.40
2023-03-17T15:49:44.871Z,51.70
2023-03-17T15:52:25.084Z,51.50
2023-03-17T15:54:57.830Z,52.60
2023-03-17T15:57:28.366Z,51.80
2023-03-17T16:00:04.947Z,52.10
2023-03-17T16:02:41.918Z,51.90
2023-03-17T16:05:28.645Z,52.70
2023-03-17T16:07:56.435Z,53.00
2023-03-17T16:10:34.692Z,53.20
2023-03-17T16:13:06.077Z,52.50
2023-03-17T16:15:42.212Z,52.80
2023-03-17T16:18:19.900Z,53.70
2023-03-17T16:20:49.963Z,53.10
2023-03-17T16:23:29.080Z,53.20
2023-03-17T16:26:15.044Z,53.50
2023-03-17T16:29:00.116Z,53.30
2023-03-17T16:31:34.752Z,54.20
2023-03-17T16:34:18.514Z,54.00
2023-03-17T16:36:52.200Z,54.00
2023-03-17T16:39:28.386Z,53.70
2023-03-17T16:41:55.817Z,54.20
2023-03-17T16:44:25.194Z,54.40
2023-03-17T16:46:57.977Z,53.70
2023-03-17T16:49:30.378Z,54.40
2023-03-17T16:52:00.412Z,54.00
2023-03-17T16:54:33.057Z,53.90
2023-03-17T16:57:13.867Z,53.20
2023-03-17T16:59:43.756Z,54.40
2023-03-17T17:02:18.473Z,55.10
2023-03-17T17:04:49.729Z,54.80
2023-03-17T17:07:16.965Z,54.20
2023-03-17T17:09:44.159Z,54.70
2023-03-17T17:12:26.286Z,55.60
2023-03-17T17:15:09.635Z,55.20
2023-03-17T17:17:39.601Z,55.30
2023-03-17T17:20:22.520Z,55.80
2023-03-17T17:22:55.141Z,55.70
2023-03-17T17:25:23.697Z,55.60
2023-03-17T17:28:02.013Z,56.40
2023-03-17T17:30:30.737Z,56.20
2023-03-17T17:33:00.475Z,56.10
2023-03-17T17:35:32.520Z,56.20
2023-03-17T17:38:01.944Z,56.20
2023-03-17T17:40:30.628Z,56.50
2023-03-17T17:42:58.515Z,56.40
2023-03-17T17:45:26.105Z,56.40
2023-03-17T17:47:53.239Z,56.60
2023-03-17T17:50:28.197Z,56.70
2023-03-17T17:53:01.567Z,56.70
2023-03-17T17:55:29.481Z,56.90
2023-03-17T17:57:56.633Z,56.70
2023-03-17T18:00:25.714Z,57.20
2023-03-17T18:02:52.770Z,56.90
2023-03-17T18:05:19.983Z,57.70
2023-03-17T18:07:47.068Z,57.70
2023-03-17T18:10:25.743Z,57.50
2023-03-17T18:12:53.597Z,57.80
2023-03-17T18:15:22.038Z,57.80
2023-03-17T18:17:50.164Z,58.50
2023-03-17T18:20:20.392Z,58.40
2023-03-17T18:22:48.079Z,58.80
2023-03-17T18:25:15.545Z,59.00
2023-03-17T18:27:43.533Z,58.30
2023-03-17T18:30:19.023Z,58.90
2023-03-17T18:32:49.579Z,58.90
2023-03-17T18:35:21.474Z,59.10
2023-03-17T18:37:49.986Z,59.20
2023-03-17T18:40:19.261Z,59.50
2023-03-17T18:42:47.220Z,59.70
2023-03-17T18:45:15.009Z,59.80
2023-03-17T18:47:42.324Z,60.00
2023-03-17T18:50:13.198Z,59.90
2023-03-17T18:52:42.095Z,60.40
2023-03-17T18:55:11.674Z,60.60
2023-03-17T18:57:39.483Z,60.90
2023-03-17T19:00:09.793Z,61.50
2023-03-17T19:02:38.201Z,61.30
2023-03-17T19:05:07.481Z,61.00
2023-03-17T19:07:35.719Z,61.70
2023-03-17T19:10:04.465Z,61.20
2023-03-17T19:12:31.956Z,61.70
2023-03-17T19:14:59.289Z,61.70
2023-03-17T19:17:26.627Z,61.80
2023-03-17T19:19:54.085Z,61.70
2023-03-17T19:22:21.223Z,62.20
2023-03-17T19:24:50.232Z,62.10
2023-03-17T19:27:18.025Z,62.40
2023-03-17T19:29:46.056Z,62.40
2023-03-17T19:32:13.279Z,63.20
2023-03-17T19:34:40.588Z,62.80
2023-03-17T19:37:07.769Z,63.20
2023-03-17T19:39:34.862Z,63.40
2023-03-17T19:42:01.984Z,63.70
2023-03-17T19:44:29.175Z,63.90
2023-03-17T19:46:56.546Z,64.30
2023-03-17T19:49:23.742Z,64.80
2023-03-17T19:51:50.916Z,65.20
2023-03-17T19:54:18.782Z,65.50
2023-03-17T19:56:46.406Z,66.00
2023-03-17T19:59:15.359Z,66.20
2023-03-17T20:01:42.801Z,66.40
2023-03-17T20:04:11.564Z,66.80
2023-03-17T20:06:38.782Z,67.40
2023-03-17T20:09:08.790Z,67.50
2023-03-17T20:11:36.295Z,67.80
2023-03-17T20:14:04.626Z,67.90
2023-03-17T20:16:36.099Z,68.10
2023-03-17T20:19:03.861Z,68.40
2023-03-17T20:21:31.369Z,68.80
2023-03-17T20:23:58.608Z,68.50
2023-03-17T20:26:25.861Z,68.80
2023-03-17T20:28:54.053Z,68.30
2023-03-17T20:31:22.527Z,68.40
2023-03-17T20:33:49.742Z,68.50
2023-03-17T20:36:16.903Z,68.50
2023-03-17T20:38:45.689Z,68.30
2023-03-17T20:41:16.587Z,68.70
2023-03-17T20:43:44.892Z,68.80
2023-03-17T20:46:22.892Z,68.60
2023-03-17T20:48:52.138Z,68.70
2023-03-17T20:51:20.056Z,68.90
2023-03-17T20:53:50.125Z,68.40
2023-03-17T20:56:22.269Z,68.60
2023-03-17T20:58:50.920Z,68.40
2023-03-17T21:01:21.277Z,68.70
2023-03-17T21:03:50.309Z,68.60
2023-03-17T21:06:18.765Z,69.00
2023-03-17T21:08:46.494Z,69.00
2023-03-17T21:11:18.689Z,68.60
2023-03-17T21:13:46.083Z,68.30
2023-03-17T21:16:24.273Z,68.50
2023-03-17T21:18:52.304Z,70.00
2023-03-17T21:21:20.669Z,71.20
2023-03-17T21:23:48.963Z,72.10
2023-03-17T21:26:16.520Z,72.90
2023-03-17T21:28:43.850Z,73.20
2023-03-17T21:31:13.578Z,73.30
2023-03-17T21:33:42.313Z,73.20
2023-03-17T21:36:10.186Z,73.40
2023-03-17T21:38:37.634Z,73.60
2023-03-17T21:41:34.549Z,73.80
2023-03-17T21:44:03.368Z,73.70
2023-03-17T21:46:31.882Z,73.80
2023-03-17T21:49:00.452Z,73.80
2023-03-17T21:51:28.637Z,74.00
2023-03-17T21:53:57.693Z,74.20
2023-03-17T21:56:25.698Z,74.30
2023-03-17T21:58:52.965Z,74.30
2023-03-17T22:01:21.915Z,74.00
2023-03-17T22:03:51.817Z,74.30
2023-03-17T22:06:20.749Z,74.10
2023-03-17T22:08:48.895Z,73.90
2023-03-17T22:11:18.903Z,74.10
2023-03-17T22:13:47.175Z,74.30
2023-03-17T22:16:16.611Z,74.00
2023-03-17T22:18:44.070Z,74.10
2023-03-17T22:21:11.520Z,74.30
2023-03-17T22:23:42.567Z,74.50
2023-03-17T22:26:15.842Z,74.30
2023-03-17T22:28:45.637Z,74.30
2023-03-17T22:31:24.290Z,74.50
2023-03-17T22:33:55.330Z,74.50
2023-03-17T22:36:24.206Z,74.60
2023-03-17T22:38:51.647Z,74.30
2023-03-17T22:41:24.032Z,74.50
2023-03-17T22:43:51.840Z,74.70
2023-03-17T22:46:20.080Z,74.50
2023-03-17T22:48:47.824Z,74.30
2023-03-17T22:51:20.842Z,74.40
2023-03-17T22:53:48.780Z,74.60
2023-03-17T22:56:17.827Z,74.40
2023-03-17T22:58:45.899Z,74.50
2023-03-17T23:01:16.217Z,74.60
2023-03-17T23:03:44.986Z,74.80
2023-03-17T23:06:13.277Z,75.10
2023-03-17T23:08:43.095Z,75.10
2023-03-17T23:11:16.345Z,75.00
2023-03-17T23:13:43.742Z,75.00
2023-03-17T23:16:11.447Z,74.90
2023-03-17T23:18:38.934Z,74.80
2023-03-17T23:21:06.886Z,74.80
2023-03-17T23:23:36.254Z,74.80
2023-03-17T23:26:04.250Z,74.80
2023-03-17T23:28:31.665Z,75.00
2023-03-17T23:30:58.857Z,75.00
2023-03-17T23:33:26.030Z,74.80
2023-03-17T23:35:53.506Z,74.40
2023-03-17T23:38:21.612Z,75.40
2023-03-17T23:40:50.018Z,76.60
2023-03-17T23:43:17.269Z,77.50
2023-03-17T23:45:45.463Z,78.30
2023-03-17T23:48:12.863Z,78.50
2023-03-17T23:50:41.237Z,79.60
2023-03-17T23:53:09.585Z,80.50
2023-03-17T23:55:36.753Z,80.40
2023-03-17T23:58:03.848Z,81.10
